Time;durP1;ratioP1;P1;durP2;ratioP2;P2;SDS_P1;SDS_P2;PMS_P1;PMS_P2;Temp;Humidity;BMP_temperature;BMP_pressure;BME280_temperature;BME280_humidity;BME280_pressure;Samples;Min_cycle;Max_cycle;Signal;HPM_P1;HPM_P2
2021/11/19 00:01:38;;;;;;;9.23;5.55;;;25.00;89.70;;;;;;1878557;75;21129;-76
2021/11/19 00:04:23;;;;;;;7.70;4.45;;;25.00;89.90;;;;;;1874532;75;21634;-78
2021/11/19 00:06:55;;;;;;;12.95;5.25;;;25.00;89.70;;;;;;1849783;76;21177;-75
2021/11/19 00:09:28;;;;;;;7.97;5.78;;;25.00;89.90;;;;;;1892649;74;21099;-74
2021/11/19 00:12:03;;;;;;;9.58;3.90;;;25.00;89.90;;;;;;1902024;74;21221;-73
2021/11/19 00:14:35;;;;;;;8.18;3.75;;;25.10;89.40;;;;;;1855786;76;21192;-74
2021/11/19 00:17:41;;;;;;;6.92;4.40;;;25.10;89.30;;;;;;1856807;76;21174;-73
2021/11/19 00:20:17;;;;;;;7.22;4.12;;;25.10;89.60;;;;;;1898254;74;21188;-71
2021/11/19 00:22:50;;;;;;;10.40;4.87;;;25.10;89.70;;;;;;1850462;76;21122;-71
2021/11/19 00:25:26;;;;;;;8.45;4.70;;;25.10;89.60;;;;;;1884635;75;21170;-75
2021/11/19 00:28:02;;;;;;;8.10;4.12;;;25.10;89.30;;;;;;1849643;76;21159;-74
2021/11/19 00:30:34;;;;;;;6.95;4.25;;;25.10;89.00;;;;;;1855391;76;21156;-74
2021/11/19 00:33:05;;;;;;;9.38;4.45;;;25.20;89.20;;;;;;1855999;76;21690;-74
2021/11/19 00:35:39;;;;;;;6.95;4.08;;;25.20;89.10;;;;;;1858867;76;21230;-75
2021/11/19 00:38:28;;;;;;;5.12;3.77;;;25.20;89.10;;;;;;1863928;76;21213;-75
2021/11/19 00:41:16;;;;;;;7.70;4.00;;;25.20;88.90;;;;;;1865712;75;21133;-74
2021/11/19 00:43:47;;;;;;;8.35;4.35;;;25.30;89.00;;;;;;1864071;75;21172;-76
2021/11/19 00:46:19;;;;;;;10.68;4.10;;;25.30;89.10;;;;;;1870219;75;21169;-75
2021/11/19 00:49:03;;;;;;;9.00;3.95;;;25.30;88.90;;;;;;1862280;75;21198;-75
2021/11/19 00:51:36;;;;;;;9.38;3.85;;;25.40;89.00;;;;;;1893486;74;21117;-75
2021/11/19 00:54:08;;;;;;;8.45;3.72;;;25.40;88.90;;;;;;1910436;74;21195;-75
2021/11/19 00:56:41;;;;;;;6.80;3.52;;;25.40;88.60;;;;;;1901954;74;21067;-74
2021/11/19 00:59:14;;;;;;;5.22;3.47;;;25.50;88.50;;;;;;1907408;75;21217;-74
2021/11/19 01:01:47;;;;;;;8.30;4.00;;;25.50;88.50;;;;;;1908992;74;21185;-73
2021/11/19 01:04:23;;;;;;;7.40;4.05;;;25.50;88.40;;;;;;1905097;74;21713;-73
2021/11/19 01:06:55;;;;;;;7.25;4.65;;;25.50;88.30;;;;;;1904195;75;21379;-73
2021/11/19 01:09:28;;;;;;;10.82;4.08;;;25.50;87.70;;;;;;1907173;74;21185;-74
2021/11/19 01:12:03;;;;;;;7.08;4.55;;;25.60;87.80;;;;;;1907408;74;21120;-72
2021/11/19 01:14:35;;;;;;;7.10;4.42;;;25.50;88.10;;;;;;1908461;75;21615;-73
2021/11/19 01:17:08;;;;;;;9.65;5.90;;;25.60;87.80;;;;;;1906270;75;21112;-74
2021/11/19 01:20:00;;;;;;;9.50;5.25;;;25.60;87.80;;;;;;1906633;74;21588;-74
2021/11/19 01:22:45;;;;;;;8.15;4.30;;;25.70;87.80;;;;;;1905185;74;21143;-72
2021/11/19 01:25:23;;;;;;;6.87;4.78;;;25.70;87.90;;;;;;1907899;75;21177;-74
2021/11/19 01:28:12;;;;;;;7.50;4.65;;;25.70;87.70;;;;;;1903060;75;21160;-73
2021/11/19 01:30:48;;;;;;;7.58;4.87;;;25.80;87.90;;;;;;1900347;74;21049;-73
2021/11/19 01:33:21;;;;;;;7.08;4.50;;;25.80;88.00;;;;;;1902519;74;21135;-73
2021/11/19 01:35:52;;;;;;;7.75;4.87;;;25.80;88.10;;;;;;1902637;75;21116;-74
2021/11/19 01:38:25;;;;;;;5.87;4.85;;;25.80;88.30;;;;;;1908157;75;21140;-73
2021/11/19 01:40:59;;;;;;;6.15;3.95;;;25.80;89.40;;;;;;1908377;74;21096;-71
2021/11/19 01:43:44;;;;;;;6.90;4.78;;;25.80;88.40;;;;;;1903393;74;21104;-73
2021/11/19 01:46:36;;;;;;;5.15;3.52;;;25.80;87.90;;;;;;1896230;74;21189;-72
2021/11/19 01:49:07;;;;;;;4.70;3.22;;;25.80;87.00;;;;;;1907544;75;21190;-73
2021/11/19 01:51:40;;;;;;;4.42;2.75;;;25.90;86.30;;;;;;1902461;75;21147;-73
2021/11/19 01:54:13;;;;;;;4.42;2.77;;;25.90;85.30;;;;;;1901752;74;21112;-73
2021/11/19 01:56:46;;;;;;;4.75;2.60;;;26.00;85.70;;;;;;1889267;75;21214;-72
2021/11/19 01:59:18;;;;;;;4.20;2.90;;;26.00;85.70;;;;;;1881388;76;21096;-72
2021/11/19 02:01:53;;;;;;;4.55;2.70;;;26.10;85.50;;;;;;1845573;76;21175;-73
2021/11/19 02:04:43;;;;;;;4.75;2.90;;;26.10;85.10;;;;;;1891580;74;21630;-72
2021/11/19 02:07:23;;;;;;;4.62;3.08;;;26.20;85.00;;;;;;1893361;74;21109;-72
2021/11/19 02:10:03;;;;;;;5.97;3.17;;;26.20;84.90;;;;;;1902970;74;21194;-74
2021/11/19 02:12:36;;;;;;;5.92;3.20;;;26.30;84.90;;;;;;1884346;75;21192;-73
2021/11/19 02:15:19;;;;;;;6.03;3.30;;;26.40;84.90;;;;;;1875527;75;21139;-73
2021/11/19 02:17:55;;;;;;;6.50;3.72;;;26.40;84.50;;;;;;1845658;76;21194;-73
2021/11/19 02:20:33;;;;;;;7.55;3.67;;;26.50;84.40;;;;;;1836837;77;21538;-73
2021/11/19 02:23:23;;;;;;;7.35;3.67;;;26.60;84.40;;;;;;1849973;76;21139;-73
2021/11/19 02:26:16;;;;;;;5.00;3.70;;;26.60;84.20;;;;;;1846334;76;21185;-74
2021/11/19 02:28:47;;;;;;;6.67;4.47;;;26.60;84.30;;;;;;1846255;77;21086;-73
2021/11/19 02:31:20;;;;;;;5.47;4.42;;;26.70;84.30;;;;;;1896203;75;21181;-72
2021/11/19 02:33:53;;;;;;;9.60;4.25;;;26.70;83.90;;;;;;1903843;75;21112;-74
2021/11/19 02:36:35;;;;;;;7.78;4.47;;;26.80;84.00;;;;;;1904513;74;21148;-73
2021/11/19 02:39:10;;;;;;;7.40;4.35;;;26.80;84.00;;;;;;1899405;75;21135;-73
2021/11/19 02:41:51;;;;;;;6.53;4.00;;;26.90;83.90;;;;;;1901471;75;21144;-73
2021/11/19 02:44:34;;;;;;;4.92;3.70;;;26.90;84.00;;;;;;1901706;75;21155;-74
2021/11/19 02:47:09;;;;;;;7.92;4.70;;;27.00;83.80;;;;;;1863426;76;21087;-74
2021/11/19 02:49:48;;;;;;;6.87;3.72;;;27.10;83.70;;;;;;1883784;75;21106;-73
2021/11/19 02:52:33;;;;;;;9.53;4.80;;;27.10;83.80;;;;;;1874993;75;21104;-73
2021/11/19 02:55:17;;;;;;;5.50;4.22;;;27.20;83.80;;;;;;1900945;74;21127;-73
2021/11/19 02:57:49;;;;;;;5.92;3.92;;;27.20;83.30;;;;;;1905348;74;21198;-74
2021/11/19 03:00:41;;;;;;;5.92;3.70;;;27.30;83.40;;;;;;1904570;75;21139;-74
2021/11/19 03:03:32;;;;;;;5.87;3.92;;;27.40;83.40;;;;;;1844960;77;21115;-73
2021/11/19 03:06:04;;;;;;;5.67;4.12;;;27.50;83.20;;;;;;1849730;76;21155;-74
2021/11/19 03:08:36;;;;;;;5.65;3.85;;;27.50;82.90;;;;;;1880729;76;21120;-73
2021/11/19 03:11:07;;;;;;;6.03;4.05;;;27.60;82.90;;;;;;1882476;74;21161;-75
2021/11/19 03:13:42;;;;;;;4.58;3.58;;;27.60;82.90;;;;;;1883123;76;21101;-75
2021/11/19 03:16:14;;;;;;;5.33;3.22;;;27.70;82.40;;;;;;1880217;76;21191;-72
2021/11/19 03:18:45;;;;;;;6.65;3.60;;;27.80;82.10;;;;;;1881994;76;21519;-73
2021/11/19 03:21:19;;;;;;;11.15;4.85;;;27.80;82.40;;;;;;1877184;76;21164;-73
2021/11/19 03:23:55;;;;;;;5.70;3.47;;;27.90;82.00;;;;;;1881305;76;21217;-73
2021/11/19 03:26:28;;;;;;;5.42;3.40;;;27.90;81.70;;;;;;1880680;76;21081;-72
2021/11/19 03:29:00;;;;;;;7.78;3.45;;;28.00;81.60;;;;;;1883100;76;21275;-73
2021/11/19 03:31:31;;;;;;;7.37;3.80;;;28.10;81.30;;;;;;1867627;76;21636;-72
2021/11/19 03:34:03;;;;;;;6.17;3.40;;;28.20;81.10;;;;;;1878435;76;21116;-73
2021/11/19 03:36:34;;;;;;;4.92;3.10;;;28.30;80.90;;;;;;1881150;76;21151;-74
2021/11/19 03:39:11;;;;;;;5.92;3.12;;;28.40;80.70;;;;;;1878873;76;21080;-73
2021/11/19 03:41:40;;;;;;;9.65;3.65;;;28.50;80.10;;;;;;1876707;76;21044;-74
2021/11/19 03:44:14;;;;;;;7.75;3.75;;;28.50;80.30;;;;;;1882275;76;21146;-74
2021/11/19 03:46:47;;;;;;;5.00;3.22;;;28.70;79.70;;;;;;1876894;76;21120;-73
2021/11/19 03:49:18;;;;;;;4.22;3.25;;;28.80;79.10;;;;;;1881507;76;21599;-73
2021/11/19 03:51:52;;;;;;;6.87;3.92;;;28.90;78.50;;;;;;1882987;76;21114;-73
2021/11/19 03:54:26;;;;;;;5.72;2.80;;;29.00;78.00;;;;;;1882360;76;21073;-73
2021/11/19 03:56:57;;;;;;;6.15;4.15;;;29.10;77.60;;;;;;1884359;75;21080;-72
2021/11/19 03:59:28;;;;;;;5.33;2.40;;;29.20;78.20;;;;;;1904834;74;21218;-72
2021/11/19 04:02:04;;;;;;;6.55;3.30;;;29.30;76.60;;;;;;1902412;75;21631;-72
2021/11/19 04:04:40;;;;;;;5.12;3.40;;;29.40;76.20;;;;;;1904747;74;21140;-71
2021/11/19 04:07:13;;;;;;;4.80;3.10;;;29.50;76.10;;;;;;1907836;74;21134;-72
2021/11/19 04:09:46;;;;;;;3.55;2.52;;;29.60;76.40;;;;;;1906102;74;21132;-71
2021/11/19 04:12:19;;;;;;;3.47;2.45;;;29.70;75.60;;;;;;1882304;74;21134;-72
2021/11/19 04:14:51;;;;;;;5.00;2.85;;;29.80;75.00;;;;;;1885888;74;21252;-74
2021/11/19 04:17:25;;;;;;;4.83;2.65;;;29.90;75.30;;;;;;1885594;74;21092;-75
2021/11/19 04:19:56;;;;;;;4.95;3.08;;;30.00;74.70;;;;;;1860219;75;21131;-74
2021/11/19 04:22:27;;;;;;;3.47;2.42;;;30.00;74.50;;;;;;1849966;76;21082;-73
2021/11/19 04:25:00;;;;;;;2.98;2.30;;;30.10;73.70;;;;;;1910089;74;21127;-75
2021/11/19 04:27:31;;;;;;;6.80;3.25;;;30.30;73.50;;;;;;1905442;74;21151;-72
2021/11/19 04:30:04;;;;;;;5.40;3.20;;;30.30;73.50;;;;;;1908931;74;21174;-72
2021/11/19 04:32:39;;;;;;;4.10;2.58;;;30.40;72.50;;;;;;1913976;74;21115;-77
2021/11/19 04:35:10;;;;;;;5.78;3.08;;;30.50;73.00;;;;;;1908202;74;21615;-73
2021/11/19 04:37:41;;;;;;;5.40;3.00;;;30.60;72.90;;;;;;1908065;74;21080;-73
2021/11/19 04:40:13;;;;;;;5.58;2.50;;;30.70;71.90;;;;;;1914950;74;21529;-75
2021/11/19 04:42:45;;;;;;;4.17;2.37;;;30.80;72.80;;;;;;1909186;74;21148;-72
2021/11/19 04:45:18;;;;;;;3.90;2.70;;;30.90;71.60;;;;;;1902115;74;21559;-73
2021/11/19 04:47:50;;;;;;;4.90;2.50;;;30.90;71.30;;;;;;1906821;74;21106;-72
2021/11/19 04:50:23;;;;;;;11.03;2.60;;;31.00;71.50;;;;;;1907431;74;21198;-75
2021/11/19 04:52:54;;;;;;;4.28;2.58;;;31.00;71.20;;;;;;1905423;74;21173;-74
2021/11/19 04:55:27;;;;;;;3.42;2.87;;;31.00;71.40;;;;;;1907937;75;21542;-75
2021/11/19 04:57:57;;;;;;;7.40;3.40;;;31.10;72.00;;;;;;1906509;74;21581;-75
2021/11/19 05:00:32;;;;;;;4.15;2.37;;;31.10;70.60;;;;;;1903721;74;21155;-75
2021/11/19 05:03:03;;;;;;;3.98;2.42;;;31.20;70.30;;;;;;1904222;75;21233;-75
2021/11/19 05:05:34;;;;;;;6.87;2.85;;;31.30;71.60;;;;;;1901800;74;22196;-74
2021/11/19 05:08:06;;;;;;;5.40;2.70;;;31.40;70.40;;;;;;1906939;74;21702;-74
2021/11/19 05:10:39;;;;;;;6.10;2.95;;;31.40;70.30;;;;;;1866759;76;21205;-74
2021/11/19 05:13:11;;;;;;;5.33;2.72;;;31.50;70.20;;;;;;1921133;74;21606;-74
2021/11/19 05:15:44;;;;;;;4.90;2.52;;;31.50;70.50;;;;;;1918989;74;21087;-72
2021/11/19 05:18:16;;;;;;;4.78;2.52;;;31.50;70.00;;;;;;1922162;74;21598;-72
2021/11/19 05:20:48;;;;;;;3.90;2.55;;;31.50;69.20;;;;;;1924218;74;21134;-73
2021/11/19 05:23:19;;;;;;;3.80;2.52;;;31.60;69.30;;;;;;1919824;74;21087;-73
2021/11/19 05:25:50;;;;;;;4.33;3.17;;;31.60;69.20;;;;;;1925834;73;21158;-73
2021/11/19 05:28:23;;;;;;;5.05;2.80;;;31.60;69.10;;;;;;1913138;74;21115;-72
2021/11/19 05:30:55;;;;;;;3.55;2.58;;;31.60;69.40;;;;;;1922020;74;21130;-72
2021/11/19 05:33:28;;;;;;;3.98;2.52;;;31.70;69.60;;;;;;1924169;74;21149;-71
2021/11/19 05:35:59;;;;;;;5.62;2.87;;;31.70;70.50;;;;;;1901223;73;21104;-72
2021/11/19 05:38:30;;;;;;;3.22;2.40;;;31.80;68.90;;;;;;1916471;74;21588;-72
2021/11/19 05:41:04;;;;;;;7.15;3.22;;;31.80;69.00;;;;;;1907623;74;21238;-72
2021/11/19 05:43:34;;;;;;;3.30;2.40;;;31.80;68.50;;;;;;1911070;74;21136;-72
2021/11/19 05:46:06;;;;;;;3.67;2.30;;;31.90;68.80;;;;;;1913455;74;21223;-74
2021/11/19 05:48:37;;;;;;;4.87;2.87;;;31.90;68.50;;;;;;1905422;74;21431;-72
2021/11/19 05:51:09;;;;;;;4.70;2.77;;;31.90;68.70;;;;;;1906571;74;21631;-71
2021/11/19 05:53:40;;;;;;;4.03;2.67;;;31.90;68.30;;;;;;1913911;74;21121;-71
2021/11/19 05:56:12;;;;;;;4.45;2.70;;;31.90;68.30;;;;;;1916465;74;21078;-71
2021/11/19 05:58:44;;;;;;;5.55;2.52;;;31.90;67.70;;;;;;1865338;75;21077;-71
2021/11/19 06:01:17;;;;;;;3.30;2.20;;;31.90;68.40;;;;;;1867005;76;21135;-72
2021/11/19 06:03:50;;;;;;;3.90;2.20;;;31.90;68.40;;;;;;1876827;75;21156;-72
2021/11/19 06:06:22;;;;;;;3.22;2.17;;;32.00;67.60;;;;;;1873410;76;21098;-70
2021/11/19 06:08:52;;;;;;;5.47;2.08;;;32.10;67.30;;;;;;1864086;76;21116;-72
2021/11/19 06:11:26;;;;;;;5.15;2.50;;;32.20;67.60;;;;;;1861734;76;21112;-72
2021/11/19 06:13:59;;;;;;;3.55;2.50;;;32.20;66.80;;;;;;1878860;76;21183;-72
2021/11/19 06:16:32;;;;;;;4.22;2.20;;;32.10;66.60;;;;;;1874893;76;22289;-72
2021/11/19 06:19:05;;;;;;;4.40;2.55;;;32.10;67.10;;;;;;1858370;76;21758;-72
2021/11/19 06:21:38;;;;;;;6.58;2.58;;;32.10;67.20;;;;;;1856985;76;21172;-72
2021/11/19 06:24:11;;;;;;;6.10;2.70;;;32.00;67.10;;;;;;1865537;75;21177;-72
2021/11/19 06:26:44;;;;;;;4.17;2.10;;;32.00;67.60;;;;;;1861983;76;21234;-72
2021/11/19 06:29:16;;;;;;;2.62;1.90;;;32.00;66.30;;;;;;1868030;76;21612;-72
2021/11/19 06:31:50;;;;;;;8.78;3.90;;;32.10;66.00;;;;;;1870076;76;21121;-71
2021/11/19 06:34:21;;;;;;;4.28;2.42;;;32.10;66.20;;;;;;1862447;76;21231;-71
2021/11/19 06:36:52;;;;;;;6.10;3.30;;;32.20;64.90;;;;;;1861266;76;21132;-72
2021/11/19 06:39:26;;;;;;;4.90;2.85;;;32.20;65.20;;;;;;1874511;76;21239;-71
2021/11/19 06:41:56;;;;;;;9.95;2.60;;;32.30;64.90;;;;;;1862324;76;21505;-71
2021/11/19 06:44:28;;;;;;;5.25;2.20;;;32.20;65.10;;;;;;1869986;75;21157;-71
2021/11/19 06:46:58;;;;;;;4.80;2.65;;;32.20;65.70;;;;;;1868437;76;21164;-71
2021/11/19 06:49:29;;;;;;;5.25;2.25;;;32.20;66.10;;;;;;1864652;76;21137;-71
2021/11/19 06:52:00;;;;;;;3.40;2.37;;;32.20;65.80;;;;;;1873023;76;21144;-71
2021/11/19 06:54:34;;;;;;;4.20;2.35;;;32.20;65.30;;;;;;1853187;76;21188;-73
2021/11/19 06:57:07;;;;;;;3.33;2.27;;;32.20;65.10;;;;;;1857299;76;21187;-71
2021/11/19 06:59:41;;;;;;;4.62;2.98;;;32.20;65.00;;;;;;1869557;76;21782;-74
2021/11/19 07:02:14;;;;;;;5.20;2.72;;;32.20;65.50;;;;;;1905674;73;21179;-71
2021/11/19 07:04:46;;;;;;;4.55;2.67;;;32.30;64.70;;;;;;1899308;74;21250;-71
2021/11/19 07:07:17;;;;;;;5.12;2.50;;;32.20;64.60;;;;;;1904640;74;21176;-72
2021/11/19 07:09:50;;;;;;;5.92;3.20;;;32.30;66.00;;;;;;1908823;74;21620;-72
2021/11/19 07:12:20;;;;;;;5.75;2.55;;;32.30;65.30;;;;;;1895051;74;21089;-71
2021/11/19 07:14:51;;;;;;;3.55;2.37;;;32.30;64.90;;;;;;1869844;76;22303;-72
2021/11/19 07:17:22;;;;;;;6.03;3.67;;;32.30;65.20;;;;;;1922101;73;21214;-72
2021/11/19 07:19:53;;;;;;;6.17;3.83;;;32.30;65.50;;;;;;1913202;73;21061;-72
2021/11/19 07:22:24;;;;;;;5.22;2.42;;;32.20;65.60;;;;;;1867207;75;21671;-73
2021/11/19 07:24:55;;;;;;;4.25;2.20;;;32.20;65.20;;;;;;1869917;76;21896;-73
2021/11/19 07:27:26;;;;;;;5.03;1.82;;;32.20;65.50;;;;;;1904251;74;21156;-73
2021/11/19 07:29:57;;;;;;;3.75;2.30;;;32.20;65.80;;;;;;1866440;76;21706;-72
2021/11/19 07:32:28;;;;;;;4.40;2.10;;;32.30;64.60;;;;;;1907344;73;21132;-73
2021/11/19 07:34:59;;;;;;;5.65;2.30;;;32.30;64.60;;;;;;1909390;74;21132;-72
2021/11/19 07:37:30;;;;;;;4.25;2.52;;;32.30;65.10;;;;;;1893711;74;21186;-72
2021/11/19 07:40:01;;;;;;;4.12;2.20;;;32.30;65.80;;;;;;1870135;76;21164;-72
2021/11/19 07:42:32;;;;;;;8.08;4.72;;;32.30;65.30;;;;;;1893067;74;21160;-72
2021/11/19 07:45:04;;;;;;;6.00;4.25;;;32.20;64.90;;;;;;1917605;73;21172;-73
2021/11/19 07:47:35;;;;;;;4.95;2.95;;;32.20;65.40;;;;;;1913341;73;21564;-73
2021/11/19 07:50:09;;;;;;;7.65;2.75;;;32.10;65.50;;;;;;1943696;73;21604;-73
2021/11/19 07:52:40;;;;;;;3.15;2.05;;;31.90;66.30;;;;;;1908049;73;21077;-73
2021/11/19 07:55:11;;;;;;;5.25;2.40;;;31.90;66.80;;;;;;1911210;73;21096;-72
2021/11/19 07:57:42;;;;;;;5.90;2.08;;;31.80;66.90;;;;;;1918650;73;21153;-71
2021/11/19 08:00:15;;;;;;;4.92;2.47;;;31.70;67.00;;;;;;1907490;73;21090;-75
2021/11/19 08:02:48;;;;;;;3.85;2.33;;;31.60;67.40;;;;;;1901472;74;21640;-72
2021/11/19 08:05:20;;;;;;;3.35;2.20;;;31.60;66.60;;;;;;1887148;74;21122;-74
2021/11/19 08:07:51;;;;;;;4.37;2.40;;;31.60;67.90;;;;;;1905638;74;21676;-74
2021/11/19 08:10:22;;;;;;;3.55;2.10;;;31.60;67.10;;;;;;1894120;74;21072;-74
2021/11/19 08:12:53;;;;;;;4.22;2.40;;;31.60;67.60;;;;;;1877906;75;21637;-72
2021/11/19 08:15:27;;;;;;;4.58;2.58;;;31.50;67.60;;;;;;1881285;74;21161;-71
2021/11/19 08:17:58;;;;;;;8.35;3.62;;;31.50;67.90;;;;;;1890771;74;21122;-73
2021/11/19 08:20:36;;;;;;;3.08;2.40;;;31.40;68.30;;;;;;1885069;74;21160;-72
2021/11/19 08:23:06;;;;;;;5.55;2.75;;;31.40;68.40;;;;;;1889924;74;21161;-72
2021/11/19 08:25:38;;;;;;;6.08;2.55;;;31.40;68.30;;;;;;1891954;74;21639;-72
2021/11/19 08:28:12;;;;;;;3.72;2.33;;;31.30;68.60;;;;;;1899225;74;21121;-72
2021/11/19 08:30:45;;;;;;;4.83;2.65;;;31.20;68.30;;;;;;1906287;74;21149;-71
2021/11/19 08:33:17;;;;;;;4.03;2.08;;;31.20;68.60;;;;;;1898714;74;21086;-73
2021/11/19 08:35:48;;;;;;;6.90;2.55;;;31.20;68.80;;;;;;1887802;74;21210;-73
2021/11/19 08:38:22;;;;;;;6.25;2.60;;;31.10;69.40;;;;;;1896561;74;21605;-73
2021/11/19 08:40:54;;;;;;;6.87;4.42;;;31.10;69.20;;;;;;1873799;75;21094;-74
2021/11/19 08:43:28;;;;;;;6.60;2.40;;;31.10;68.60;;;;;;1852152;76;21083;-74
2021/11/19 08:46:01;;;;;;;4.03;2.20;;;31.10;69.40;;;;;;1883632;76;21545;-72
2021/11/19 08:48:34;;;;;;;7.42;2.33;;;31.10;69.30;;;;;;1835431;77;21192;-72
2021/11/19 08:51:07;;;;;;;7.08;2.80;;;31.10;69.30;;;;;;1859336;77;21078;-81
2021/11/19 08:53:40;;;;;;;6.17;3.60;;;31.10;69.90;;;;;;1838369;77;21095;-82
2021/11/19 08:56:10;;;;;;;7.03;4.40;;;31.10;69.80;;;;;;1844611;77;21129;-82
2021/11/19 08:58:43;;;;;;;4.45;2.45;;;31.20;69.80;;;;;;1838205;77;21620;-82
2021/11/19 09:01:17;;;;;;;4.05;2.05;;;31.20;69.40;;;;;;1843801;76;21597;-77
2021/11/19 09:03:48;;;;;;;5.53;2.40;;;31.30;68.70;;;;;;1870507;75;21113;-89
2021/11/19 09:06:21;;;;;;;7.03;3.00;;;31.40;68.30;;;;;;1876075;76;21141;-88
2021/11/19 09:08:53;;;;;;;4.80;2.77;;;31.40;68.50;;;;;;1867626;76;21196;-88
2021/11/19 09:11:26;;;;;;;6.20;2.98;;;31.40;68.30;;;;;;1865704;76;21218;-89
2021/11/19 09:13:58;;;;;;;8.93;3.52;;;31.50;68.10;;;;;;1863378;75;21242;-88
2021/11/19 09:16:31;;;;;;;3.95;1.92;;;31.50;68.20;;;;;;1867931;76;21607;-88
2021/11/19 09:19:04;;;;;;;5.30;2.37;;;31.40;68.00;;;;;;1859693;76;21122;-87
2021/11/19 09:21:37;;;;;;;7.40;2.70;;;31.50;67.70;;;;;;1859656;76;21141;-88
2021/11/19 09:24:10;;;;;;;8.23;2.83;;;31.50;67.80;;;;;;1856726;76;21199;-87
2021/11/19 09:26:42;;;;;;;5.62;2.35;;;31.50;67.50;;;;;;1854152;76;21141;-85
2021/11/19 09:29:15;;;;;;;3.60;2.35;;;31.50;67.50;;;;;;1851633;76;21231;-88
2021/11/19 09:31:50;;;;;;;5.30;2.40;;;31.50;67.70;;;;;;1858122;76;21564;-87
2021/11/19 09:34:23;;;;;;;7.70;2.67;;;31.50;68.10;;;;;;1854740;75;21274;-88
2021/11/19 09:36:54;;;;;;;6.80;2.37;;;31.40;67.90;;;;;;1849845;76;21774;-88
2021/11/19 09:39:29;;;;;;;5.30;2.42;;;31.40;68.10;;;;;;1838089;76;21146;-88
2021/11/19 09:42:00;;;;;;;6.87;2.17;;;31.40;68.00;;;;;;1903936;73;21199;-88
2021/11/19 09:44:34;;;;;;;5.42;2.20;;;31.30;68.40;;;;;;1868232;75;21640;-87
2021/11/19 09:47:07;;;;;;;7.40;2.30;;;31.30;67.70;;;;;;1868570;75;21086;-88
2021/11/19 09:49:41;;;;;;;4.75;2.10;;;31.20;67.90;;;;;;1862748;76;21106;-89
2021/11/19 09:52:14;;;;;;;4.03;2.37;;;31.20;67.60;;;;;;1849758;76;21208;-88
2021/11/19 09:54:46;;;;;;;4.90;1.92;;;31.20;67.70;;;;;;1845441;76;21144;-88
2021/11/19 09:57:19;;;;;;;5.55;2.30;;;31.10;67.80;;;;;;1859894;76;21199;-86
2021/11/19 09:59:52;;;;;;;7.05;3.20;;;31.10;68.30;;;;;;1856707;76;21211;-88
2021/11/19 10:02:37;;;;;;;;;;;;;;;;;;;;;
2021/11/19 10:05:12;;;;;;;;;;;;;;;;;;;;;
2021/11/19 10:07:49;;;;;;;5.15;2.35;;;31.00;68.40;;;;;;1900765;73;21626;-88
2021/11/19 10:10:27;;;;;;;7.47;2.90;;;31.00;68.80;;;;;;1895091;73;21148;-89
2021/11/19 10:13:19;;;;;;;;;;;;;;;;;;;;;
2021/11/19 10:15:54;;;;;;;7.95;3.00;;;30.90;68.90;;;;;;1898457;74;21066;-89
2021/11/19 10:18:27;;;;;;;3.33;2.15;;;30.90;69.20;;;;;;1889520;76;21684;-89
2021/11/19 10:21:04;;;;;;;5.22;2.35;;;30.90;69.40;;;;;;1919295;74;21112;-89
2021/11/19 10:23:44;;;;;;;5.78;2.37;;;30.80;69.30;;;;;;1836788;77;21202;-87
2021/11/19 10:26:32;;;;;;;;;;;;;;;;;;;;;
2021/11/19 10:28:54;;;;;;;8.13;4.22;;;30.80;69.60;;;;;;1886753;74;21087;-89
2021/11/19 10:31:34;;;;;;;6.87;3.35;;;30.70;69.70;;;;;;1889843;74;21211;-88
2021/11/19 10:34:12;;;;;;;6.05;3.80;;;30.70;69.90;;;;;;1887809;74;21903;-88
2021/11/19 10:36:47;;;;;;;6.08;3.55;;;30.70;69.80;;;;;;1885099;74;21103;-89
2021/11/19 10:39:19;;;;;;;4.12;3.33;;;30.70;70.00;;;;;;1892789;74;21136;-89
2021/11/19 10:41:51;;;;;;;11.30;3.87;;;30.70;70.60;;;;;;1891289;74;21135;-89
2021/11/19 10:44:24;;;;;;;12.10;5.78;;;30.70;71.20;;;;;;1879819;74;21256;-89
2021/11/19 10:46:57;;;;;;;9.88;6.67;;;30.70;71.60;;;;;;1870885;74;21192;-90
2021/11/19 10:49:31;;;;;;;11.48;6.30;;;30.60;71.90;;;;;;1872041;74;21130;-90
2021/11/19 10:53:35;;;;;;;16.07;5.60;;;30.60;72.00;;;;;;1882362;74;21158;-90
2021/11/19 10:55:00;;;;;;;8.90;5.12;;;30.60;72.50;;;;;;1805820;76;21127;-90
2021/11/19 10:57:54;;;;;;;10.70;5.33;;;30.60;73.00;;;;;;1852248;75;21732;-90
2021/11/19 11:00:34;;;;;;;10.13;6.08;;;30.50;73.50;;;;;;1836128;77;21250;-88
2021/11/19 11:03:08;;;;;;;11.53;5.50;;;30.40;73.60;;;;;;1843009;76;21124;-87
2021/11/19 11:05:41;;;;;;;11.83;4.95;;;30.40;74.10;;;;;;1844533;75;21348;-89
2021/11/19 11:08:14;;;;;;;19.35;6.08;;;30.30;74.20;;;;;;1856309;76;21132;-90
2021/11/19 11:10:47;;;;;;;13.78;5.22;;;30.30;74.50;;;;;;1848540;76;21160;-89
2021/11/19 11:13:20;;;;;;;9.65;5.05;;;30.30;74.80;;;;;;1852327;75;21593;-90
2021/11/19 11:15:56;;;;;;;11.12;5.25;;;30.30;75.10;;;;;;1852281;77;21328;-90
2021/11/19 11:18:29;;;;;;;;;;;30.20;74.90;;;;;;1846813;75;21251;-89
2021/11/19 11:21:02;;;;;;;13.13;6.25;;;30.20;74.60;;;;;;1868155;75;20198;-88
2021/11/19 11:23:37;;;;;;;10.85;5.53;;;30.10;75.40;;;;;;1858919;76;21467;-89
2021/11/19 11:26:08;;;;;;;9.20;5.28;;;30.10;75.50;;;;;;1810621;79;21174;-88
2021/11/19 11:28:41;;;;;;;10.05;5.55;;;30.10;76.10;;;;;;1881685;76;21134;-89
2021/11/19 11:31:14;;;;;;;8.95;5.10;;;30.10;76.20;;;;;;1876227;75;21162;-89
2021/11/19 11:33:50;;;;;;;9.53;4.70;;;30.00;76.10;;;;;;1889501;75;21695;-89
2021/11/19 11:36:22;;;;;;;14.05;5.75;;;30.00;76.20;;;;;;1884502;75;21130;-89
2021/11/19 11:38:57;;;;;;;8.55;5.50;;;30.00;76.60;;;;;;1901169;75;21055;-88
2021/11/19 11:41:34;;;;;;;14.57;6.07;;;29.90;76.20;;;;;;1883296;75;21344;-86
2021/11/19 11:44:04;;;;;;;8.85;5.87;;;29.90;76.50;;;;;;1875459;75;21142;-88
2021/11/19 11:46:37;;;;;;;11.22;6.22;;;29.90;76.50;;;;;;1887680;74;21102;-89
2021/11/19 11:49:14;;;;;;;13.55;7.33;;;29.90;76.30;;;;;;1901069;74;21525;-89
2021/11/19 11:51:46;;;;;;;12.07;6.72;;;29.90;76.30;;;;;;1881409;75;21127;-89
2021/11/19 11:54:17;;;;;;;12.13;6.40;;;29.90;76.20;;;;;;1902426;75;21134;-89
2021/11/19 11:56:50;;;;;;;11.55;6.37;;;29.90;76.30;;;;;;1909011;74;21288;-89
2021/11/19 11:59:23;;;;;;;13.20;6.40;;;29.90;76.50;;;;;;1894380;75;21205;-87
2021/11/19 12:01:57;;;;;;;;;;;29.90;76.50;;;;;;1901638;75;21145;-88
2021/11/19 12:04:32;;;;;;;9.13;5.72;;;29.90;76.30;;;;;;1910372;74;20123;-89
2021/11/19 12:07:05;;;;;;;8.98;5.60;;;29.90;76.70;;;;;;1910166;74;21154;-88
2021/11/19 12:09:38;;;;;;;10.95;6.35;;;29.80;76.70;;;;;;1902817;74;21198;-87
2021/11/19 12:12:10;;;;;;;7.22;5.33;;;29.80;76.70;;;;;;1902444;74;21694;-88
2021/11/19 12:14:42;;;;;;;7.65;5.40;;;29.80;76.70;;;;;;1890997;75;21134;-88
2021/11/19 12:17:16;;;;;;;15.03;7.53;;;29.80;76.50;;;;;;1904033;75;21144;-89
2021/11/19 12:19:54;;;;;;;11.47;6.60;;;29.80;76.60;;;;;;1903672;74;21084;-88
2021/11/19 12:22:24;;;;;;;11.70;6.37;;;29.80;77.00;;;;;;1903047;75;21126;-86
2021/11/19 12:24:57;;;;;;;13.85;6.42;;;29.70;77.80;;;;;;1878663;75;21146;-88
2021/11/19 12:27:33;;;;;;;11.85;6.42;;;29.70;78.10;;;;;;1856725;76;21146;-87
2021/11/19 12:30:05;;;;;;;13.08;7.12;;;29.60;78.40;;;;;;1876229;74;21134;-87
2021/11/19 12:32:38;;;;;;;10.93;6.17;;;29.60;78.20;;;;;;1890749;74;21131;-89
2021/11/19 12:35:13;;;;;;;14.10;6.67;;;29.50;78.30;;;;;;1882058;74;21180;-89
2021/11/19 12:37:46;;;;;;;12.20;6.87;;;29.50;78.30;;;;;;1890380;76;21142;-89
2021/11/19 12:40:19;;;;;;;11.15;6.25;;;29.50;78.70;;;;;;1887106;76;21555;-88
2021/11/19 12:42:52;;;;;;;11.97;7.00;;;29.50;78.90;;;;;;1888012;76;21129;-89
2021/11/19 12:45:25;;;;;;;12.18;7.15;;;29.50;79.40;;;;;;1887807;76;22382;-89
2021/11/19 12:47:57;;;;;;;10.32;6.67;;;29.40;79.20;;;;;;1884873;74;21158;-88
2021/11/19 12:50:29;;;;;;;12.28;6.95;;;29.40;78.90;;;;;;1887302;74;21209;-89
2021/11/19 12:53:02;;;;;;;12.43;7.35;;;29.40;79.00;;;;;;1886873;74;21693;-88
2021/11/19 12:55:34;;;;;;;10.60;6.83;;;29.40;78.80;;;;;;1879027;75;21806;-88
2021/11/19 12:58:07;;;;;;;14.83;7.05;;;29.40;78.80;;;;;;1901675;74;21216;-88
2021/11/19 13:00:37;;;;;;;11.48;7.08;;;29.40;79.40;;;;;;1886615;76;21258;-88
2021/11/19 13:03:11;;;;;;;12.65;6.83;;;29.40;79.40;;;;;;1887879;74;21133;-89
2021/11/19 13:05:44;;;;;;;12.00;7.20;;;29.40;79.40;;;;;;1884632;75;21182;-77
2021/11/19 13:08:18;;;;;;;13.55;7.75;;;29.40;79.60;;;;;;1889063;74;21649;-75
2021/11/19 13:10:50;;;;;;;14.18;7.22;;;29.40;79.60;;;;;;1884876;74;21163;-78
2021/11/19 13:13:23;;;;;;;12.95;8.05;;;29.30;79.60;;;;;;1904572;74;21108;-79
2021/11/19 13:15:57;;;;;;;14.87;8.20;;;29.30;80.00;;;;;;1887779;74;21559;-79
2021/11/19 13:18:30;;;;;;;14.05;7.10;;;29.30;80.30;;;;;;1885283;74;21103;-79
2021/11/19 13:21:03;;;;;;;15.15;8.20;;;29.30;80.40;;;;;;1884058;74;21232;-77
2021/11/19 13:23:37;;;;;;;15.55;8.60;;;29.30;80.50;;;;;;1883005;74;21129;-78
2021/11/19 13:26:08;;;;;;;12.25;8.03;;;29.30;80.60;;;;;;1887610;74;21116;-79